KFCI

Richmond Executive-Chesterfield County Airport

Richmond, Virginia, USA
METAR KFCI 202340Z AUTO 00000KT 10SM FEW016 BKN021 BKN110 23/23 A3003 RMK AO2 RAE24 P0001
Observed Flight Rules
Aug-20 @ 23:40 UTC (29 minutes ago) Marginal Visual Flight Rules
Visibility Clouds
10 miles
  • Few at 1,600' AGL
  • Broken at 2,100' AGL
  • Broken at 11,000' AGL
Temperatures Readings Precipitation
Current 23°C / 73°F
Dewpoint 23°C / 73°F
Humidity 100%
Altimeter 30.03" Hg
Pressure 1017 hPa
Elevation 72
Current Rain 0.01
METAR KFCI 202340Z AUTO 00000KT 10SM FEW016 BKN021 BKN110 23/23 A3003 RMK AO2 RAE24 P0001
Observed Flight Rules
Aug-20 @ 23:40 UTC
(29 minutes ago)
MVFR
Clouds
  • Few at 1,600' AGL
  • Broken at 2,100' AGL
  • Broken at 11,000' AGL
Temperature Dewpoint
23°C / 73°F 23°C / 73°F
Humidity Altimeter Pressure
100% 30.03" Hg 1017 hPa
Current Rain
0.01